Time;durP1;ratioP1;P1;durP2;ratioP2;P2;SDS_P1;SDS_P2;PMS_P1;PMS_P2;Temp;Humidity;BMP_temperature;BMP_pressure;BME280_temperature;BME280_humidity;BME280_pressure;Samples;Min_cycle;Max_cycle;Signal;HPM_P1;HPM_P2
2022/10/23 00:00:11;;;;;;;684.05;627.78;;;;;;;15.60;73.72;101215.78;704000;28;21548;-61
2022/10/23 00:00:32;;;;;;;714.40;657.35;;;;;;;15.61;73.64;101213.91;703303;28;44337;-61
2022/10/23 00:00:56;;;;;;;681.45;625.25;;;;;;;15.59;73.71;101205.09;704240;28;22498;-61
2022/10/23 00:01:19;;;;;;;686.05;629.72;;;;;;;15.60;73.31;101212.22;701644;28;90967;-61
2022/10/23 00:01:41;;;;;;;703.17;646.47;;;;;;;15.52;73.44;101207.78;702430;28;69444;-61
2022/10/23 00:02:03;;;;;;;686.08;629.78;;;;;;;15.56;73.35;101213.66;702276;28;69239;-61
2022/10/23 00:02:25;;;;;;;685.55;629.15;;;;;;;15.55;73.62;101211.97;703238;28;44395;-59
2022/10/23 00:02:51;;;;;;;721.25;664.10;;;;;;;15.54;73.67;101211.13;704165;28;21538;-61
2022/10/23 00:03:13;;;;;;;692.05;635.58;;;;;;;15.52;73.76;101210.50;699992;28;138077;-60
2022/10/23 00:03:34;;;;;;;683.13;626.83;;;;;;;15.53;73.54;101211.34;703470;28;23405;-61
2022/10/23 00:03:58;;;;;;;691.22;634.75;;;;;;;15.51;73.79;101214.25;704178;28;22404;-61
2022/10/23 00:04:21;;;;;;;724.17;666.95;;;;;;;15.51;73.40;101216.97;701689;28;88164;-61
2022/10/23 00:04:42;;;;;;;696.50;639.83;;;;;;;15.50;73.59;101216.13;703140;28;46612;-61
2022/10/23 00:05:04;;;;;;;695.55;639.10;;;;;;;15.49;73.84;101217.16;704028;28;21320;-61
2022/10/23 00:05:27;;;;;;;675.38;619.25;;;;;;;15.49;73.71;101214.44;701904;28;69633;-61
2022/10/23 00:05:48;;;;;;;702.13;645.40;;;;;;;15.48;73.72;101220.09;702260;28;45279;-60
2022/10/23 00:06:10;;;;;;;710.85;653.95;;;;;;;15.46;73.86;101214.00;703496;28;22405;-62
2022/10/23 00:06:33;;;;;;;708.92;652.03;;;;;;;15.47;73.83;101221.97;702382;28;46549;-61
2022/10/23 00:06:55;;;;;;;684.03;627.80;;;;;;;15.44;73.83;101214.22;701938;28;67457;-62
2022/10/23 00:07:16;;;;;;;700.28;643.65;;;;;;;15.43;73.82;101217.97;702947;28;46768;-61
2022/10/23 00:07:37;;;;;;;709.60;652.65;;;;;;;15.42;73.71;101220.88;703247;28;45227;-62
2022/10/23 00:07:59;;;;;;;706.13;649.35;;;;;;;15.42;73.65;101215.44;703993;28;22449;-62
2022/10/23 00:08:20;;;;;;;696.10;639.55;;;;;;;15.41;73.88;101217.31;701114;28;23399;-61
2022/10/23 00:08:42;;;;;;;684.55;628.15;;;;;;;15.41;73.99;101219.22;699938;28;46586;-61
2022/10/23 00:09:05;;;;;;;715.85;658.80;;;;;;;15.40;74.04;101220.25;700551;28;45281;-61
2022/10/23 00:09:26;;;;;;;704.00;647.30;;;;;;;15.39;73.68;101213.97;700485;28;46334;-61
2022/10/23 00:09:47;;;;;;;698.17;641.58;;;;;;;15.37;73.84;101216.03;701199;28;23480;-61
2022/10/23 00:10:10;;;;;;;693.00;636.47;;;;;;;15.36;73.91;101216.22;700262;28;44832;-62
2022/10/23 00:10:34;;;;;;;678.65;622.42;;;;;;;15.37;73.83;101217.91;697703;28;115954;-62
2022/10/23 00:10:55;;;;;;;709.25;652.40;;;;;;;15.36;73.97;101222.53;700300;28;44137;-62
2022/10/23 00:11:18;;;;;;;705.60;648.80;;;;;;;15.37;73.91;101223.34;701152;28;21566;-61
2022/10/23 00:11:40;;;;;;;723.88;666.55;;;;;;;15.34;74.04;101221.84;699391;28;69338;-62
2022/10/23 00:12:02;;;;;;;662.65;606.80;;;;;;;15.33;74.30;101217.47;700327;28;46490;-62
2022/10/23 00:12:23;;;;;;;696.13;639.40;;;;;;;15.32;74.06;101219.34;704086;28;14129;-62
2022/10/23 00:12:45;;;;;;;688.40;632.05;;;;;;;15.32;74.16;101224.78;704075;27;21532;-62
2022/10/23 00:13:06;;;;;;;681.90;625.60;;;;;;;15.33;74.15;101217.47;703312;28;46300;-62
2022/10/23 00:13:27;;;;;;;712.70;655.75;;;;;;;15.27;74.47;101210.94;703946;28;21543;-62
2022/10/23 00:13:50;;;;;;;704.50;647.67;;;;;;;15.32;74.28;101221.22;700390;28;43364;-60
2022/10/23 00:14:11;;;;;;;694.35;637.75;;;;;;;15.32;74.29;101219.34;699686;28;67482;-62
2022/10/23 00:14:32;;;;;;;686.53;630.17;;;;;;;15.31;74.27;101227.69;701112;28;21477;-62
2022/10/23 00:14:53;;;;;;;687.47;631.17;;;;;;;15.31;74.23;101216.81;701247;28;22385;-62
2022/10/23 00:15:18;;;;;;;690.50;634.08;;;;;;;15.31;74.45;101222.25;698446;28;22393;-61
2022/10/23 00:15:39;;;;;;;698.63;641.92;;;;;;;15.31;74.59;101228.56;695306;28;114924;-61
2022/10/23 00:16:01;;;;;;;714.70;657.65;;;;;;;15.32;74.43;101223.94;700802;28;22393;-61
2022/10/23 00:16:22;;;;;;;677.47;621.22;;;;;;;15.32;74.38;101223.94;700189;28;45110;-62
2022/10/23 00:16:44;;;;;;;690.67;634.13;;;;;;;15.31;74.43;101228.56;700875;28;22342;-61
2022/10/23 00:17:06;;;;;;;695.50;638.55;;;;;;;15.31;74.27;101219.53;699663;28;45164;-61
2022/10/23 00:17:27;;;;;;;691.15;634.50;;;;;;;15.31;74.25;101222.25;700202;28;46391;-61
2022/10/23 00:17:48;;;;;;;697.50;640.92;;;;;;;15.30;74.25;101226.88;701180;28;22403;-62
2022/10/23 00:18:10;;;;;;;676.30;620.22;;;;;;;15.30;74.20;101229.59;698523;28;22472;-62
2022/10/23 00:18:31;;;;;;;707.30;650.50;;;;;;;15.30;74.19;101236.91;697932;28;23528;-62
2022/10/23 00:18:53;;;;;;;704.63;648.00;;;;;;;15.30;74.20;101231.47;698416;28;23472;-62
2022/10/23 00:19:14;;;;;;;687.10;630.80;;;;;;;15.29;73.99;101232.50;697677;28;46281;-61
2022/10/23 00:19:35;;;;;;;682.97;626.70;;;;;;;15.28;74.09;101234.41;699560;28;22401;-62
2022/10/23 00:19:56;;;;;;;710.40;653.53;;;;;;;15.26;74.11;101224.72;701322;28;23398;-61
2022/10/23 00:20:18;;;;;;;717.85;660.80;;;;;;;15.27;74.20;101231.88;701233;28;22416;-61
2022/10/23 00:20:39;;;;;;;662.55;606.67;;;;;;;15.26;74.18;101232.91;700443;28;46524;-62
2022/10/23 00:21:01;;;;;;;725.58;668.22;;;;;;;15.26;74.13;101230.16;699980;28;46312;-61
2022/10/23 00:21:23;;;;;;;710.58;653.55;;;;;;;15.26;74.27;101235.63;701246;28;22410;-61
2022/10/23 00:21:45;;;;;;;689.80;633.22;;;;;;;15.25;74.46;101229.34;700266;28;46313;-61
2022/10/23 00:22:07;;;;;;;695.53;638.97;;;;;;;15.25;74.16;101228.47;700441;28;45259;-62
2022/10/23 00:22:28;;;;;;;718.92;661.83;;;;;;;15.24;74.44;101233.09;700390;28;44392;-62
2022/10/23 00:22:49;;;;;;;680.65;624.40;;;;;;;15.25;74.28;101228.47;701396;28;21542;-62
2022/10/23 00:23:11;;;;;;;694.80;638.17;;;;;;;15.24;74.32;101230.38;700385;28;46485;-62
2022/10/23 00:23:33;;;;;;;705.95;649.00;;;;;;;15.23;74.39;101233.28;700010;28;44381;-62
2022/10/23 00:23:54;;;;;;;711.25;654.20;;;;;;;15.23;74.41;101228.66;700982;28;23496;-62
2022/10/23 00:24:15;;;;;;;706.22;649.40;;;;;;;15.22;74.35;101235.19;701348;28;23514;-62
2022/10/23 00:24:37;;;;;;;693.15;636.45;;;;;;;15.22;74.31;101229.72;700979;28;21534;-62
2022/10/23 00:24:58;;;;;;;679.45;623.13;;;;;;;15.21;74.36;101230.75;699575;28;69247;-62
2022/10/23 00:25:19;;;;;;;701.00;644.22;;;;;;;15.21;74.40;101228.03;701039;28;21554;-62
2022/10/23 00:25:40;;;;;;;682.00;625.60;;;;;;;15.21;74.48;101229.94;701243;28;22376;-61
2022/10/23 00:26:02;;;;;;;701.33;644.63;;;;;;;15.21;74.44;101238.09;701353;28;23711;-60
2022/10/23 00:26:24;;;;;;;714.83;657.70;;;;;;;15.20;74.37;101230.97;701168;28;21495;-61
2022/10/23 00:26:48;;;;;;;697.85;641.17;;;;;;;15.20;74.59;101231.78;699589;28;70284;-61
2022/10/23 00:27:09;;;;;;;687.42;630.97;;;;;;;15.20;74.70;101226.34;698084;28;69415;-62
2022/10/23 00:27:30;;;;;;;681.97;625.58;;;;;;;15.21;74.34;101232.66;700523;28;22402;-62
2022/10/23 00:27:52;;;;;;;705.58;648.67;;;;;;;15.20;74.50;101230.97;697332;28;46420;-61
2022/10/23 00:28:13;;;;;;;688.85;632.40;;;;;;;15.21;74.81;101235.38;694547;28;44380;-61
2022/10/23 00:28:35;;;;;;;685.53;629.03;;;;;;;15.17;74.59;101229.47;694619;28;21274;-61
2022/10/23 00:28:56;;;;;;;702.13;645.30;;;;;;;15.17;74.41;101236.78;693311;28;22416;-62
2022/10/23 00:29:18;;;;;;;684.10;627.72;;;;;;;15.19;74.49;101237.41;697990;28;23484;-62
2022/10/23 00:29:39;;;;;;;662.45;606.65;;;;;;;15.20;74.33;101233.69;696397;28;1230;-60
2022/10/23 00:30:00;;;;;;;717.80;660.80;;;;;;;15.17;74.67;101234.91;698369;28;22555;-61
2022/10/23 00:30:22;;;;;;;671.03;615.08;;;;;;;15.17;74.24;101240.34;698124;28;23682;-61
2022/10/23 00:30:43;;;;;;;703.67;646.83;;;;;;;15.16;74.20;101233.22;695913;28;23429;-61
2022/10/23 00:31:06;;;;;;;689.13;632.70;;;;;;;15.14;74.68;101238.88;698337;28;21351;-61
2022/10/23 00:31:27;;;;;;;698.10;641.45;;;;;;;15.14;74.51;101238.88;697102;28;69450;-61
2022/10/23 00:31:49;;;;;;;688.28;631.80;;;;;;;15.13;74.32;101231.72;698167;28;21532;-62
2022/10/23 00:32:11;;;;;;;687.65;631.17;;;;;;;15.13;74.31;101245.34;696533;28;69322;-61
2022/10/23 00:32:33;;;;;;;702.97;646.13;;;;;;;15.12;74.48;101238.22;698990;28;22409;-61
2022/10/23 00:32:55;;;;;;;697.20;640.58;;;;;;;15.12;74.72;101243.69;701137;28;23486;-61
2022/10/23 00:33:16;;;;;;;699.35;642.63;;;;;;;15.12;74.57;101234.66;699309;28;70155;-61
2022/10/23 00:33:37;;;;;;;698.90;642.10;;;;;;;15.11;74.61;101236.53;699655;28;22368;-61
2022/10/23 00:33:58;;;;;;;711.03;654.05;;;;;;;15.10;74.59;101243.00;700798;28;21094;-62
2022/10/23 00:34:21;;;;;;;717.38;660.25;;;;;;;15.09;74.58;101241.34;700150;28;46348;-62
2022/10/23 00:34:42;;;;;;;700.72;644.03;;;;;;;15.09;74.59;101240.47;699992;28;44530;-61
2022/10/23 00:35:04;;;;;;;670.22;614.30;;;;;;;15.08;74.58;101234.22;701098;28;22399;-62
2022/10/23 00:35:25;;;;;;;689.55;632.97;;;;;;;15.08;74.66;101236.94;697191;28;44524;-61
2022/10/23 00:35:48;;;;;;;708.57;651.47;;;;;;;15.06;74.63;101239.00;698770;28;22488;-61
2022/10/23 00:36:11;;;;;;;713.38;656.28;;;;;;;15.05;74.42;101231.03;696908;28;67508;-61
2022/10/23 00:36:33;;;;;;;725.00;667.65;;;;;;;15.06;74.84;101246.31;696547;28;69413;-62
2022/10/23 00:36:54;;;;;;;703.97;647.08;;;;;;;15.04;74.80;101238.34;696831;28;45257;-62
2022/10/23 00:37:16;;;;;;;706.58;649.38;;;;;;;15.05;74.78;101237.31;697009;28;21520;-61
2022/10/23 00:37:37;;;;;;;685.28;628.80;;;;;;;15.05;74.70;101242.75;700144;28;44349;-60
2022/10/23 00:37:58;;;;;;;729.83;672.38;;;;;;;15.04;74.69;101238.34;698476;28;21280;-61
2022/10/23 00:38:19;;;;;;;710.58;653.60;;;;;;;15.04;74.82;101241.06;698132;28;21531;-61
2022/10/23 00:38:41;;;;;;;691.40;634.88;;;;;;;15.04;74.59;101242.94;696525;28;45283;-61
2022/10/23 00:39:03;;;;;;;712.30;655.40;;;;;;;15.04;74.51;101242.94;698923;28;21528;-61
2022/10/23 00:39:25;;;;;;;692.03;635.45;;;;;;;15.02;74.58;101240.41;696435;28;67505;-61
2022/10/23 00:39:46;;;;;;;695.80;639.13;;;;;;;15.03;74.89;101249.41;695513;28;43972;-61
2022/10/23 00:40:09;;;;;;;689.97;633.65;;;;;;;15.03;74.89;101243.97;698286;28;22392;-61
2022/10/23 00:40:30;;;;;;;692.78;636.33;;;;;;;15.02;74.61;101247.75;694792;28;44359;-60
2022/10/23 00:40:51;;;;;;;693.78;637.20;;;;;;;15.01;74.50;101240.63;692885;28;23488;-61
2022/10/23 00:41:16;;;;;;;690.72;634.33;;;;;;;15.00;74.90;101241.66;692944;28;46294;-61
2022/10/23 00:41:37;;;;;;;723.40;666.20;;;;;;;15.00;74.72;101244.34;690635;28;92263;-61
2022/10/23 00:41:58;;;;;;;698.20;641.65;;;;;;;14.98;74.78;101241.84;692718;28;23480;-61
2022/10/23 00:42:20;;;;;;;680.55;624.35;;;;;;;14.95;74.75;101237.66;693424;28;22400;-61
2022/10/23 00:42:42;;;;;;;702.30;645.47;;;;;;;14.96;74.58;101236.59;695571;28;44352;-61
2022/10/23 00:43:03;;;;;;;705.88;649.00;;;;;;;14.98;74.67;101241.00;695532;28;44400;-61
2022/10/23 00:43:26;;;;;;;686.95;630.45;;;;;;;14.96;74.71;101243.91;698043;28;44380;-61
2022/10/23 00:43:56;;;;;;;705.30;648.40;;;;;;;14.95;74.70;101242.22;695866;28;70730;-62
2022/10/23 00:44:56;;;;;;;698.70;641.97;;;;;;;14.93;74.92;101234.25;694099;28;137839;-61
2022/10/23 00:45:21;;;;;;;693.05;636.47;;;;;;;14.93;74.81;101236.97;696641;28;136009;-61
2022/10/23 00:45:42;;;;;;;678.28;621.90;;;;;;;14.92;74.92;101235.31;698011;28;113534;-61
2022/10/23 00:46:05;;;;;;;666.30;610.42;;;;;;;14.92;74.92;101234.44;701216;28;21530;-61
2022/10/23 00:46:27;;;;;;;667.00;611.00;;;;;;;14.93;75.16;101234.25;698378;28;92070;-61
2022/10/23 00:46:48;;;;;;;718.00;660.72;;;;;;;14.93;75.03;101241.59;700793;28;23439;-61
2022/10/23 00:47:09;;;;;;;703.90;646.90;;;;;;;14.93;75.23;101238.88;699625;28;46344;-62
2022/10/23 00:47:31;;;;;;;695.50;638.70;;;;;;;14.94;75.21;101241.38;700736;28;23416;-62
2022/10/23 00:47:53;;;;;;;658.10;602.28;;;;;;;14.94;75.14;101240.56;698060;28;21579;-61
2022/10/23 00:48:15;;;;;;;727.33;669.83;;;;;;;14.95;75.40;101239.50;693967;28;69357;-62
2022/10/23 00:48:36;;;;;;;697.53;640.67;;;;;;;14.95;75.06;101239.50;695337;28;46335;-61
2022/10/23 00:48:58;;;;;;;691.47;634.92;;;;;;;14.95;75.36;101237.66;698219;28;22534;-60
2022/10/23 00:49:21;;;;;;;718.78;661.58;;;;;;;14.95;75.21;101243.09;695701;28;22380;-62
2022/10/23 00:49:44;;;;;;;722.90;665.47;;;;;;;14.96;75.41;101238.47;696512;28;92137;-61
2022/10/23 00:50:05;;;;;;;699.72;643.00;;;;;;;14.96;75.29;101239.31;700985;28;46317;-61
2022/10/23 00:50:28;;;;;;;704.40;647.53;;;;;;;14.94;74.81;101237.84;704458;28;1038;-61
2022/10/23 00:50:50;;;;;;;686.70;630.20;;;;;;;14.97;74.87;101234.72;699300;28;69377;-62
2022/10/23 00:51:11;;;;;;;685.42;629.03;;;;;;;14.95;75.05;101243.09;701360;28;45245;-62
2022/10/23 00:51:36;;;;;;;679.42;623.03;;;;;;;14.96;75.06;101236.59;700518;28;22464;-61
2022/10/23 00:52:00;;;;;;;727.10;669.78;;;;;;;14.93;75.22;101230.72;697694;28;115055;-62
2022/10/23 00:52:21;;;;;;;704.38;647.58;;;;;;;14.95;75.40;101236.78;698139;28;84974;-61
2022/10/23 00:52:47;;;;;;;662.17;606.42;;;;;;;14.95;75.28;101232.22;698059;28;46285;-63
2022/10/23 00:53:09;;;;;;;686.05;629.72;;;;;;;14.94;75.23;101237.84;694630;28;113585;-61
2022/10/23 00:53:30;;;;;;;715.40;658.25;;;;;;;14.95;75.30;101237.66;696756;28;46382;-62
2022/10/23 00:53:54;;;;;;;665.55;609.60;;;;;;;14.94;75.37;101235.13;695315;28;23629;-62
2022/10/23 00:54:18;;;;;;;698.72;642.03;;;;;;;14.95;75.34;101240.38;694334;28;90712;-62
2022/10/23 00:54:41;;;;;;;714.80;657.63;;;;;;;14.95;75.38;101242.22;695610;28;90333;-62
2022/10/23 00:55:03;;;;;;;671.13;614.97;;;;;;;14.95;75.18;101242.22;698143;28;69154;-61
2022/10/23 00:55:25;;;;;;;683.20;626.75;;;;;;;14.94;75.33;101232.41;698462;28;45253;-62
2022/10/23 00:55:50;;;;;;;714.67;657.63;;;;;;;14.95;75.00;101231.34;701106;28;69106;-61
2022/10/23 00:56:11;;;;;;;700.28;643.55;;;;;;;14.94;75.21;101238.66;701375;28;93067;-62
2022/10/23 00:56:35;;;;;;;695.13;638.08;;;;;;;14.94;75.18;101240.56;700263;28;23486;-62
2022/10/23 00:56:58;;;;;;;707.55;650.40;;;;;;;14.92;75.15;101237.16;700786;28;15272;-62
2022/10/23 00:57:20;;;;;;;709.13;651.85;;;;;;;14.94;75.10;101240.56;699978;28;90290;-62
2022/10/23 00:57:43;;;;;;;674.58;618.33;;;;;;;14.95;75.07;101245.81;702801;28;22387;-62
2022/10/23 00:58:05;;;;;;;702.03;645.22;;;;;;;14.91;75.33;101236.34;701393;28;92274;-60
2022/10/23 00:58:26;;;;;;;678.95;622.72;;;;;;;14.93;75.17;101247.84;703206;28;23435;-62
2022/10/23 00:58:47;;;;;;;689.50;633.00;;;;;;;14.93;75.30;101241.59;703291;27;22462;-62
2022/10/23 00:59:09;;;;;;;662.28;606.40;;;;;;;14.92;75.22;101243.47;703681;28;23531;-62
2022/10/23 00:59:31;;;;;;;645.83;590.25;;;;;;;14.92;75.26;101239.88;702644;28;46398;-62
2022/10/23 00:59:52;;;;;;;710.50;653.53;;;;;;;14.92;75.15;101235.31;702845;28;46333;-62
2022/10/23 01:00:16;;;;;;;683.45;627.15;;;;;;;14.91;75.02;101239.06;702468;28;46268;-61
2022/10/23 01:00:44;;;;;;;687.03;630.53;;;;;;;14.92;75.09;101246.19;701214;28;92595;-62
2022/10/23 01:01:16;;;;;;;683.75;627.25;;;;;;;14.90;74.98;101228.38;696957;28;136258;-62
2022/10/23 01:01:38;;;;;;;708.13;651.22;;;;;;;14.90;75.38;101236.53;696941;28;136059;-61
2022/10/23 01:02:06;;;;;;;696.67;639.95;;;;;;;14.91;75.35;101243.66;699980;28;60656;-62
2022/10/23 01:02:27;;;;;;;682.85;626.42;;;;;;;14.90;75.44;101240.09;700723;28;69164;-62
2022/10/23 01:02:49;;;;;;;700.28;643.53;;;;;;;14.86;75.31;101233.38;703746;28;21490;-62
2022/10/23 01:03:10;;;;;;;707.97;651.13;;;;;;;14.91;75.08;101236.34;702338;28;44357;-62
2022/10/23 01:03:32;;;;;;;684.10;627.83;;;;;;;14.90;75.18;101233.81;703176;28;21685;-62
2022/10/23 01:03:54;;;;;;;681.90;625.67;;;;;;;14.91;75.14;101239.06;702893;28;46293;-62
2022/10/23 01:04:16;;;;;;;687.13;630.78;;;;;;;14.91;75.22;101238.22;700178;28;45257;-61
2022/10/23 01:04:37;;;;;;;685.58;629.17;;;;;;;14.91;75.44;101233.63;699590;28;46339;-61
2022/10/23 01:04:58;;;;;;;674.13;618.03;;;;;;;14.93;75.32;101236.16;700965;28;23398;-61
2022/10/23 01:05:25;;;;;;;675.03;618.90;;;;;;;14.92;75.44;101234.44;700880;28;21536;-61
2022/10/23 01:05:49;;;;;;;705.10;648.28;;;;;;;14.93;75.44;101233.41;696125;28;159352;-61
2022/10/23 01:06:14;;;;;;;684.35;627.97;;;;;;;14.94;75.53;101233.22;698445;28;115877;-62
2022/10/23 01:06:39;;;;;;;687.70;631.30;;;;;;;14.94;75.33;101238.66;699095;28;113531;-62
2022/10/23 01:07:06;;;;;;;690.60;633.88;;;;;;;14.94;75.27;101226.97;699779;28;114442;-62
2022/10/23 01:07:32;;;;;;;720.85;663.50;;;;;;;14.93;75.46;101236.97;699425;28;138011;-61
2022/10/23 01:07:56;;;;;;;700.63;643.80;;;;;;;14.96;75.08;101243.91;695809;28;161122;-62
2022/10/23 01:08:22;;;;;;;694.10;637.53;;;;;;;14.98;75.20;101243.72;695629;28;92155;-62
2022/10/23 01:08:50;;;;;;;688.58;632.00;;;;;;;14.98;75.37;101244.56;693272;28;137834;-62
2022/10/23 01:09:15;;;;;;;695.17;638.47;;;;;;;15.00;75.18;101239.78;691341;28;138049;-62
2022/10/23 01:09:39;;;;;;;719.22;661.85;;;;;;;15.01;75.16;101237.91;691690;28;113581;-62
2022/10/23 01:10:03;;;;;;;659.85;603.95;;;;;;;15.02;75.09;101240.41;696501;28;69288;-62
2022/10/23 01:10:33;;;;;;;699.45;642.65;;;;;;;15.01;75.21;101241.44;693951;28;138566;-61
2022/10/23 01:10:59;;;;;;;694.22;637.55;;;;;;;15.02;75.14;101243.16;696959;28;137968;-62
2022/10/23 01:11:27;;;;;;;672.58;616.38;;;;;;;14.99;74.93;101238.09;699271;28;136156;-62
2022/10/23 01:11:52;;;;;;;695.22;638.53;;;;;;;15.02;74.77;101236.88;698406;28;92144;-61
2022/10/23 01:12:20;;;;;;;678.47;622.15;;;;;;;15.02;74.60;101245.03;698304;28;115085;-62
2022/10/23 01:12:46;;;;;;;688.95;632.40;;;;;;;15.01;74.77;101236.00;699644;28;137705;-62
2022/10/23 01:13:12;;;;;;;696.00;639.35;;;;;;;15.01;74.72;101240.63;700420;28;113624;-61
2022/10/23 01:13:39;;;;;;;686.47;629.92;;;;;;;15.00;74.58;101244.34;698664;28;138148;-61
2022/10/23 01:14:06;;;;;;;685.25;628.83;;;;;;;14.99;74.60;101246.25;699633;28;138032;-62
2022/10/23 01:14:31;;;;;;;717.88;660.65;;;;;;;14.98;74.65;101239.13;696607;28;136321;-62
2022/10/23 01:14:58;;;;;;;691.42;634.83;;;;;;;14.98;74.80;101244.56;698419;28;91948;-62
2022/10/23 01:15:28;;;;;;;682.65;626.35;;;;;;;14.97;74.85;101242.91;693831;28;136177;-60
2022/10/23 01:15:52;;;;;;;686.10;629.75;;;;;;;14.94;74.69;101240.56;694851;28;136291;-62
2022/10/23 01:16:19;;;;;;;686.95;630.67;;;;;;;14.97;74.72;101237.44;694606;28;113562;-62
2022/10/23 01:16:45;;;;;;;681.20;624.97;;;;;;;14.98;74.82;101241.00;693278;28;160225;-61
2022/10/23 01:17:13;;;;;;;684.65;627.97;;;;;;;15.00;74.78;101236.19;693204;28;136329;-61
2022/10/23 01:17:40;;;;;;;697.33;640.47;;;;;;;14.99;74.74;101242.69;693664;28;137909;-61
2022/10/23 01:18:08;;;;;;;687.38;631.03;;;;;;;14.98;74.61;101249.16;691822;28;136565;-60
2022/10/23 01:18:36;;;;;;;711.67;654.67;;;;;;;14.98;74.61;101247.28;690590;28;138227;-59
2022/10/23 01:19:05;;;;;;;684.75;628.30;;;;;;;14.96;74.53;101241.19;688265;28;137901;-61
2022/10/23 01:19:41;;;;;;;703.47;646.67;;;;;;;14.96;74.44;101242.03;686310;28;137991;-61
2022/10/23 01:20:30;;;;;;;670.30;614.08;;;;;;;14.96;74.38;101241.19;690086;28;137775;-61
2022/10/23 01:20:56;;;;;;;712.97;655.88;;;;;;;14.95;74.39;101239.50;691529;28;136010;-61
2022/10/23 01:21:22;;;;;;;673.88;617.65;;;;;;;14.93;74.51;101244.31;689744;28;138752;-61
2022/10/23 01:21:51;;;;;;;677.47;621.28;;;;;;;14.93;74.81;101245.13;691350;28;138619;-61
2022/10/23 01:22:27;;;;;;;693.78;637.13;;;;;;;14.92;74.54;101243.47;693568;28;138562;-61
2022/10/23 01:23:12;;;;;;;671.80;615.75;;;;;;;14.90;74.53;101242.81;692856;28;135917;-62
2022/10/23 01:23:52;;;;;;;711.85;654.70;;;;;;;14.89;74.50;101243.00;694524;28;136878;-61
2022/10/23 01:24:20;;;;;;;672.72;616.63;;;;;;;14.89;74.31;101238.41;699037;28;137390;-62
2022/10/23 01:24:46;;;;;;;678.53;622.20;;;;;;;14.87;74.58;101237.75;697143;28;159190;-61
2022/10/23 01:25:19;;;;;;;674.55;618.40;;;;;;;14.87;74.44;101234.19;699415;28;138072;-62
2022/10/23 01:26:11;;;;;;;684.53;628.10;;;;;;;14.85;74.42;101234.38;696699;28;137772;-61
2022/10/23 01:27:11;;;;;;;675.13;618.85;;;;;;;14.85;74.58;101241.72;696751;28;135989;-62
2022/10/23 01:27:36;;;;;;;683.42;627.05;;;;;;;14.83;74.44;101239.19;696849;28;137403;-62
2022/10/23 01:28:01;;;;;;;691.47;635.00;;;;;;;14.83;74.90;101238.31;697615;28;115257;-62
2022/10/23 01:28:29;;;;;;;679.63;623.40;;;;;;;14.84;74.84;101237.31;696493;28;62519;-61
2022/10/23 01:28:53;;;;;;;688.45;632.10;;;;;;;14.83;74.66;101239.19;695041;28;111887;-62
2022/10/23 01:29:20;;;;;;;707.17;650.33;;;;;;;14.83;74.86;101244.63;695118;28;113502;-62
2022/10/23 01:29:44;;;;;;;675.35;619.00;;;;;;;14.84;74.95;101240.03;694908;28;115014;-62
2022/10/23 01:30:07;;;;;;;730.42;672.85;;;;;;;14.82;74.56;101240.22;695152;28;115110;-61
2022/10/23 01:30:36;;;;;;;673.55;617.30;;;;;;;14.80;74.57;101238.75;693859;28;137222;-62
2022/10/23 01:31:00;;;;;;;687.92;631.47;;;;;;;14.81;74.79;101237.69;693865;28;138410;-62
2022/10/23 01:31:34;;;;;;;697.35;640.58;;;;;;;14.81;74.43;101244.00;696716;28;58959;-61
2022/10/23 01:31:59;;;;;;;714.60;657.53;;;;;;;14.82;74.47;101247.53;696521;28;92422;-62
2022/10/23 01:32:26;;;;;;;670.38;614.25;;;;;;;14.81;74.80;101246.72;694611;28;114905;-62
2022/10/23 01:32:51;;;;;;;700.63;643.83;;;;;;;14.79;75.08;101246.03;694072;28;136370;-61
2022/10/23 01:33:16;;;;;;;702.40;645.50;;;;;;;14.78;74.60;101241.66;694603;28;136414;-62
2022/10/23 01:33:46;;;;;;;702.28;645.35;;;;;;;14.77;74.55;101248.94;694124;28;137938;-62
2022/10/23 01:34:14;;;;;;;705.92;649.10;;;;;;;14.76;74.48;101247.28;696398;28;137684;-60
2022/10/23 01:34:44;;;;;;;679.63;623.33;;;;;;;14.73;74.67;101247.66;696734;28;138031;-62
2022/10/23 01:35:11;;;;;;;708.22;651.13;;;;;;;14.75;74.63;101247.47;696462;28;136239;-62
2022/10/23 01:35:36;;;;;;;692.20;635.47;;;;;;;14.72;74.74;101245.97;691393;28;137824;-62
2022/10/23 01:36:02;;;;;;;671.10;614.97;;;;;;;14.70;74.77;101242.59;694147;28;137947;-62
2022/10/23 01:36:26;;;;;;;686.78;630.30;;;;;;;14.72;74.73;101251.41;698816;28;92332;-62
2022/10/23 01:36:50;;;;;;;677.17;620.90;;;;;;;14.71;74.84;101249.72;696254;28;138068;-62
2022/10/23 01:37:16;;;;;;;701.97;644.70;;;;;;;14.70;75.05;101244.47;696529;28;46296;-62
2022/10/23 01:37:40;;;;;;;671.03;614.70;;;;;;;14.70;74.78;101248.06;696799;28;137962;-62
2022/10/23 01:38:08;;;;;;;670.30;614.20;;;;;;;14.69;75.01;101253.69;695273;28;136436;-62
2022/10/23 01:38:36;;;;;;;687.95;631.50;;;;;;;14.69;74.83;101248.25;693914;28;113568;-62
2022/10/23 01:39:10;;;;;;;702.20;645.55;;;;;;;14.68;75.13;101247.38;695246;28;161885;-62
2022/10/23 01:39:36;;;;;;;696.47;639.75;;;;;;;14.68;74.70;101250.09;695439;28;92251;-62
2022/10/23 01:40:01;;;;;;;696.67;640.00;;;;;;;14.63;74.80;101241.69;698342;28;137826;-62
2022/10/23 01:40:27;;;;;;;697.08;640.25;;;;;;;14.68;75.06;101252.81;700065;28;115272;-62
2022/10/23 01:40:51;;;;;;;709.08;652.00;;;;;;;14.67;75.03;101251.16;700325;28;114995;-62
2022/10/23 01:41:17;;;;;;;685.72;629.22;;;;;;;14.68;74.96;101257.41;700415;28;115146;-62
2022/10/23 01:41:41;;;;;;;659.83;603.95;;;;;;;14.67;74.91;101253.88;697131;28;114949;-62
2022/10/23 01:42:05;;;;;;;711.63;654.63;;;;;;;14.67;74.84;101253.88;694389;28;113549;-62
2022/10/23 01:42:32;;;;;;;682.95;626.42;;;;;;;14.67;75.24;101250.28;694860;28;90283;-62
2022/10/23 01:42:56;;;;;;;683.72;627.35;;;;;;;14.67;74.83;101247.56;691240;28;136313;-62
2022/10/23 01:43:25;;;;;;;666.30;610.30;;;;;;;14.67;75.06;101248.44;692631;28;90883;-62
2022/10/23 01:43:52;;;;;;;680.35;624.13;;;;;;;14.67;74.91;101247.56;689745;28;136372;-62
2022/10/23 01:44:16;;;;;;;697.95;641.30;;;;;;;14.66;75.02;101251.34;694192;28;136334;-62
2022/10/23 01:44:41;;;;;;;706.08;649.17;;;;;;;14.66;74.94;101254.88;698064;28;90683;-62
2022/10/23 01:45:05;;;;;;;702.30;645.47;;;;;;;14.65;74.88;101247.75;698417;28;92242;-62
2022/10/23 01:45:40;;;;;;;659.73;603.93;;;;;;;14.64;75.06;101251.53;696066;28;160622;-62
2022/10/23 01:46:06;;;;;;;701.35;644.53;;;;;;;14.63;74.97;101251.72;696505;28;136422;-62
2022/10/23 01:46:34;;;;;;;688.72;632.15;;;;;;;14.62;75.17;101250.84;693472;28;136229;-62
2022/10/23 01:46:56;;;;;;;690.95;634.30;;;;;;;14.63;75.03;101255.28;692504;28;90726;-62
2022/10/23 01:47:25;;;;;;;682.42;625.75;;;;;;;14.62;74.95;101244.59;689517;28;115058;-63
2022/10/23 01:47:55;;;;;;;667.50;611.42;;;;;;;14.62;75.37;101250.03;692400;28;137567;-63
2022/10/23 01:48:20;;;;;;;694.17;637.50;;;;;;;14.62;75.12;101250.03;694489;28;46317;-63
2022/10/23 01:48:46;;;;;;;723.40;666.05;;;;;;;14.61;75.19;101246.47;694657;28;115790;-62